createdAt,value
2022-08-24T00:00:37.040Z,6.30
2022-08-24T00:01:37.022Z,6.90
2022-08-24T00:02:37.184Z,8.10
2022-08-24T00:03:37.152Z,7.00
2022-08-24T00:04:36.971Z,6.00
2022-08-24T00:05:36.956Z,6.70
2022-08-24T00:06:36.942Z,7.40
2022-08-24T00:07:36.923Z,7.10
2022-08-24T00:08:36.909Z,6.50
2022-08-24T00:09:36.894Z,7.70
2022-08-24T00:10:36.881Z,6.30
2022-08-24T00:11:36.863Z,7.50
2022-08-24T00:12:36.851Z,7.80
2022-08-24T00:13:38.491Z,9.80
2022-08-24T00:14:36.817Z,8.30
2022-08-24T00:15:36.801Z,10.80
2022-08-24T00:16:36.900Z,6.70
2022-08-24T00:17:36.769Z,7.10
2022-08-24T00:18:36.755Z,7.00
2022-08-24T00:19:36.739Z,7.40
2022-08-24T00:20:36.725Z,6.40
2022-08-24T00:21:36.708Z,6.00
2022-08-24T00:22:36.694Z,8.10
2022-08-24T00:23:36.677Z,7.10
2022-08-24T00:24:36.680Z,8.00
2022-08-24T00:25:36.646Z,6.70
2022-08-24T00:26:36.632Z,7.80
2022-08-24T00:27:36.645Z,8.00
2022-08-24T00:28:36.600Z,10.40
2022-08-24T00:29:36.584Z,8.00
2022-08-24T00:30:36.570Z,6.00
2022-08-24T00:31:36.628Z,7.10
2022-08-24T00:32:36.539Z,6.80
2022-08-24T00:33:36.525Z,9.70
2022-08-24T00:34:36.511Z,7.80
2022-08-24T00:35:36.494Z,7.00
2022-08-24T00:36:36.479Z,7.70
2022-08-24T00:37:36.462Z,6.60
2022-08-24T00:38:36.449Z,8.70
2022-08-24T00:39:36.429Z,8.10
2022-08-24T00:40:36.415Z,6.60
2022-08-24T00:41:36.427Z,6.90
2022-08-24T00:42:36.413Z,5.40
2022-08-24T00:43:36.368Z,9.50
2022-08-24T00:44:36.385Z,7.80
2022-08-24T00:46:36.321Z,11.00
2022-08-24T00:47:36.307Z,6.90
2022-08-24T00:48:36.493Z,10.60
2022-08-24T00:49:36.277Z,8.50
2022-08-24T00:50:36.263Z,8.20
2022-08-24T00:51:36.244Z,6.60
2022-08-24T00:52:36.232Z,6.10
2022-08-24T00:53:36.364Z,6.30
2022-08-24T00:54:36.197Z,8.60
2022-08-24T00:55:36.182Z,6.60
2022-08-24T00:56:36.167Z,6.80
2022-08-24T00:57:36.151Z,7.50
2022-08-24T00:58:36.139Z,7.90
2022-08-24T00:59:36.122Z,7.10
2022-08-24T01:00:36.210Z,6.50
2022-08-24T01:01:36.235Z,7.70
2022-08-24T01:02:36.154Z,9.90
2022-08-24T01:03:36.059Z,5.90
2022-08-24T01:04:36.048Z,7.20
2022-08-24T01:05:36.027Z,6.90
2022-08-24T01:06:36.011Z,7.00
2022-08-24T01:08:36.385Z,7.70
2022-08-24T01:09:35.991Z,8.00
2022-08-24T01:10:35.984Z,8.50
2022-08-24T01:12:36.146Z,7.60
2022-08-24T01:14:35.887Z,6.90
2022-08-24T01:15:35.904Z,6.70
2022-08-24T01:16:35.944Z,8.30
2022-08-24T01:17:38.882Z,6.90
2022-08-24T01:18:35.855Z,7.80
2022-08-24T01:19:35.839Z,4.90
2022-08-24T01:20:35.824Z,5.50
2022-08-24T01:21:35.810Z,6.00
2022-08-24T01:22:35.990Z,5.00
2022-08-24T01:23:36.602Z,4.80
2022-08-24T01:24:35.738Z,7.60
2022-08-24T01:26:35.726Z,8.60
2022-08-24T01:27:35.687Z,5.20
2022-08-24T01:28:36.993Z,7.70
2022-08-24T01:29:35.886Z,5.20
2022-08-24T01:30:36.364Z,6.90
2022-08-24T01:31:36.061Z,6.40
2022-08-24T01:32:35.633Z,7.10
2022-08-24T01:33:35.930Z,6.50
2022-08-24T01:34:35.603Z,5.40
2022-08-24T01:35:35.594Z,6.50
2022-08-24T01:36:35.570Z,8.20
2022-08-24T01:39:35.528Z,7.70
2022-08-24T01:40:35.486Z,6.10
2022-08-24T01:41:35.670Z,6.20
2022-08-24T01:42:35.476Z,7.60
2022-08-24T01:43:37.370Z,5.90
2022-08-24T01:44:35.445Z,5.20
2022-08-24T01:46:35.493Z,5.80
2022-08-24T01:47:35.372Z,8.60
2022-08-24T01:48:35.362Z,6.60
2022-08-24T01:49:35.339Z,7.00
2022-08-24T01:50:35.326Z,5.80
2022-08-24T01:51:35.309Z,6.30
2022-08-24T01:53:03.511Z,5.30
2022-08-24T01:53:35.279Z,6.20
2022-08-24T01:54:35.265Z,6.80
2022-08-24T01:55:35.247Z,8.60
2022-08-24T01:56:35.239Z,7.30
2022-08-24T01:57:35.217Z,8.60
2022-08-24T01:58:35.201Z,8.50
2022-08-24T01:59:35.185Z,6.70
2022-08-24T02:00:35.170Z,6.90
2022-08-24T02:01:35.204Z,8.70
2022-08-24T02:02:35.192Z,8.50
2022-08-24T02:03:35.121Z,11.60
2022-08-24T02:04:35.116Z,9.90
2022-08-24T02:05:35.092Z,6.40
2022-08-24T02:06:35.075Z,6.90
2022-08-24T02:07:35.089Z,10.30
2022-08-24T02:08:35.046Z,6.90
2022-08-24T02:09:35.052Z,6.80
2022-08-24T02:10:35.017Z,7.40
2022-08-24T02:11:35.025Z,8.60
2022-08-24T02:12:35.012Z,6.80
2022-08-24T02:13:34.993Z,7.70
2022-08-24T02:14:34.984Z,9.90
2022-08-24T02:15:34.965Z,7.90
2022-08-24T02:17:34.903Z,6.50
2022-08-24T02:18:34.919Z,7.90
2022-08-24T02:19:35.207Z,6.70
2022-08-24T02:20:35.390Z,10.40
2022-08-24T02:21:35.041Z,10.00
2022-08-24T02:22:34.852Z,7.90
2022-08-24T02:23:34.839Z,7.50
2022-08-24T02:24:34.821Z,7.30
2022-08-24T02:25:34.805Z,8.80
2022-08-24T02:26:34.789Z,9.90
2022-08-24T02:27:34.780Z,7.10
2022-08-24T02:28:34.759Z,8.60
2022-08-24T02:30:34.733Z,8.70
2022-08-24T02:31:35.061Z,7.90
2022-08-24T02:32:34.698Z,8.10
2022-08-24T02:33:34.684Z,9.60
2022-08-24T02:34:35.268Z,7.90
2022-08-24T02:35:34.646Z,12.30
2022-08-24T02:36:35.041Z,8.80
2022-08-24T02:38:35.683Z,8.20
2022-08-24T02:39:36.406Z,7.90
2022-08-24T02:40:34.566Z,8.20
2022-08-24T02:43:34.522Z,8.50
2022-08-24T02:44:34.476Z,7.30
2022-08-24T02:45:34.692Z,9.70
2022-08-24T02:46:34.841Z,6.50
2022-08-24T02:47:38.800Z,9.50
2022-08-24T02:50:34.409Z,9.00
2022-08-24T02:51:42.251Z,7.70
2022-08-24T02:53:34.765Z,8.20
2022-08-24T02:54:34.623Z,8.10
2022-08-24T02:56:35.325Z,6.80
2022-08-24T02:57:34.302Z,8.70
2022-08-24T02:58:34.283Z,7.80
2022-08-24T03:00:34.458Z,7.20
2022-08-24T03:01:34.912Z,8.80
2022-08-24T03:02:34.260Z,6.70
2022-08-24T03:03:34.816Z,8.50
2022-08-24T03:05:34.177Z,7.20
2022-08-24T03:06:34.156Z,8.10
2022-08-24T03:07:34.747Z,14.00
2022-08-24T03:08:34.708Z,8.20
2022-08-24T03:09:34.107Z,7.00
2022-08-24T03:10:34.700Z,8.70
2022-08-24T03:11:34.082Z,8.20
2022-08-24T03:12:34.067Z,8.40
2022-08-24T03:17:33.986Z,8.80
2022-08-24T03:20:34.131Z,8.10
2022-08-24T03:23:34.674Z,7.00
2022-08-24T03:24:34.473Z,7.70
2022-08-24T03:26:33.837Z,8.00
2022-08-24T03:28:35.425Z,9.30
2022-08-24T03:29:34.298Z,7.80
2022-08-24T03:34:34.623Z,11.30
2022-08-24T03:37:33.858Z,6.60
2022-08-24T03:38:33.616Z,6.90
2022-08-24T03:39:33.598Z,5.90
2022-08-24T03:40:33.626Z,8.00
2022-08-24T03:41:33.842Z,9.10
2022-08-24T03:42:33.553Z,7.70
2022-08-24T03:43:33.535Z,11.00
2022-08-24T03:44:33.522Z,9.00
2022-08-24T03:45:33.569Z,10.10
2022-08-24T03:46:33.492Z,10.20
2022-08-24T03:47:33.474Z,7.80
2022-08-24T03:48:33.455Z,10.10
2022-08-24T03:49:33.439Z,7.80
2022-08-24T03:50:33.424Z,13.70
2022-08-24T03:51:33.407Z,11.30
2022-08-24T03:52:34.051Z,9.50
2022-08-24T03:53:33.373Z,11.10
2022-08-24T03:54:33.359Z,8.90
2022-08-24T03:55:33.343Z,10.30
2022-08-24T03:56:33.328Z,10.10
2022-08-24T03:57:33.389Z,11.00
2022-08-24T03:58:33.297Z,12.20
2022-08-24T03:59:33.280Z,9.50
2022-08-24T04:00:33.264Z,11.40
2022-08-24T04:01:33.261Z,12.10
2022-08-24T04:02:33.274Z,11.20
2022-08-24T04:03:33.213Z,8.50
2022-08-24T04:04:33.198Z,10.20
2022-08-24T04:05:35.176Z,10.00
2022-08-24T04:06:33.164Z,8.70
2022-08-24T04:07:33.147Z,7.90
2022-08-24T04:08:33.134Z,8.90
2022-08-24T04:09:33.113Z,9.00
2022-08-24T04:10:33.102Z,11.20
2022-08-24T04:11:33.083Z,13.50
2022-08-24T04:12:33.068Z,8.50
2022-08-24T04:13:33.048Z,12.50
2022-08-24T04:14:33.036Z,9.40
2022-08-24T04:15:33.018Z,11.50
2022-08-24T04:16:33.049Z,7.80
2022-08-24T04:17:32.984Z,8.20
2022-08-24T04:18:32.971Z,9.10
2022-08-24T04:19:32.953Z,9.10
2022-08-24T04:20:32.939Z,10.80
2022-08-24T04:21:35.369Z,9.10
2022-08-24T04:22:32.907Z,12.40
2022-08-24T04:23:47.405Z,8.60
2022-08-24T04:24:32.875Z,8.90
2022-08-24T04:25:32.856Z,10.40
2022-08-24T04:26:45.255Z,9.80
2022-08-24T04:27:32.825Z,13.90
2022-08-24T04:28:32.810Z,9.70
2022-08-24T04:29:32.791Z,15.70
2022-08-24T04:30:32.789Z,9.20
2022-08-24T04:31:32.792Z,11.40
2022-08-24T04:32:32.745Z,8.50
2022-08-24T04:33:32.725Z,10.40
2022-08-24T04:34:32.714Z,9.00
2022-08-24T04:35:32.693Z,8.40
2022-08-24T04:36:32.678Z,10.80
2022-08-24T04:37:32.659Z,9.20
2022-08-24T04:38:32.646Z,12.80
2022-08-24T04:39:32.627Z,13.20
2022-08-24T04:40:32.653Z,7.80
2022-08-24T04:41:32.595Z,11.40
2022-08-24T04:42:32.581Z,10.20
2022-08-24T04:43:32.562Z,10.30
2022-08-24T04:44:32.556Z,9.20
2022-08-24T04:45:32.604Z,10.20
2022-08-24T04:46:32.515Z,10.30
2022-08-24T04:47:32.497Z,9.60
2022-08-24T04:48:32.491Z,10.50
2022-08-24T04:49:32.466Z,11.90
2022-08-24T04:50:32.451Z,13.60
2022-08-24T04:51:36.712Z,14.50
2022-08-24T04:52:32.414Z,10.80
2022-08-24T04:53:32.400Z,12.20
2022-08-24T04:54:32.383Z,11.10
2022-08-24T04:55:32.369Z,8.60
2022-08-24T04:56:32.385Z,10.30
2022-08-24T04:57:32.768Z,8.90
2022-08-24T04:59:32.324Z,9.80
2022-08-24T05:00:32.340Z,8.50
2022-08-24T05:01:32.294Z,11.10
2022-08-24T05:02:36.618Z,9.00
2022-08-24T05:03:32.263Z,12.00
2022-08-24T05:04:32.451Z,9.50
2022-08-24T05:05:32.230Z,11.70
2022-08-24T05:06:32.632Z,10.60
2022-08-24T05:07:32.401Z,10.30
2022-08-24T05:08:32.180Z,9.60
2022-08-24T05:09:32.159Z,10.10
2022-08-24T05:10:33.680Z,9.70
2022-08-24T05:11:32.132Z,12.40
2022-08-24T05:13:32.099Z,11.80
2022-08-24T05:15:32.069Z,8.90
2022-08-24T05:16:32.257Z,11.60
2022-08-24T05:17:32.234Z,11.60
2022-08-24T05:18:32.016Z,9.20
2022-08-24T05:21:31.964Z,11.30
2022-08-24T05:22:32.560Z,9.60
2022-08-24T05:24:32.121Z,14.50
2022-08-24T05:25:31.901Z,9.90
2022-08-24T05:27:32.276Z,11.70
2022-08-24T05:29:32.043Z,10.10
2022-08-24T05:30:32.224Z,9.80
2022-08-24T05:32:31.791Z,8.10
2022-08-24T05:33:31.973Z,12.40
2022-08-24T05:36:31.726Z,10.50
2022-08-24T05:37:32.310Z,12.50
2022-08-24T05:39:32.054Z,10.40
2022-08-24T05:40:33.357Z,14.30
2022-08-24T05:41:31.844Z,8.60
2022-08-24T05:42:32.942Z,14.30
2022-08-24T05:43:31.605Z,12.80
2022-08-24T05:44:31.603Z,12.90
2022-08-24T05:46:31.802Z,14.70
2022-08-24T05:47:31.946Z,13.10
2022-08-24T05:49:31.715Z,20.50
2022-08-24T05:50:31.694Z,14.40
2022-08-24T05:51:31.882Z,12.10
2022-08-24T05:53:31.763Z,13.40
2022-08-24T05:55:31.619Z,13.80
2022-08-24T05:56:32.223Z,15.80
2022-08-24T05:58:31.502Z,13.20
2022-08-24T06:00:31.328Z,17.30
2022-08-24T06:01:31.618Z,16.60
2022-08-24T06:03:31.283Z,14.00
2022-08-24T06:04:31.468Z,12.30
2022-08-24T06:05:31.247Z,13.30
2022-08-24T06:06:31.642Z,13.50
2022-08-24T06:08:31.605Z,16.60
2022-08-24T06:11:31.558Z,21.30
2022-08-24T06:12:31.333Z,14.50
2022-08-24T06:13:31.325Z,17.40
2022-08-24T06:14:31.708Z,18.10
2022-08-24T06:16:32.117Z,19.70
2022-08-24T06:18:31.840Z,18.30
2022-08-24T06:19:31.829Z,19.30
2022-08-24T06:20:31.613Z,17.30
2022-08-24T06:22:30.973Z,17.30
2022-08-24T06:23:31.157Z,16.70
2022-08-24T06:24:31.142Z,16.90
2022-08-24T06:27:31.583Z,18.70
2022-08-24T06:28:31.489Z,21.50
2022-08-24T06:29:31.264Z,18.10
2022-08-24T06:30:32.260Z,18.60
2022-08-24T06:32:30.807Z,16.90
2022-08-24T06:34:30.778Z,15.30
2022-08-24T06:36:32.470Z,19.10
2022-08-24T06:37:30.733Z,17.80
2022-08-24T06:39:31.081Z,16.60
2022-08-24T06:40:31.583Z,19.20
2022-08-24T06:42:30.723Z,20.60
2022-08-24T06:43:30.758Z,16.30
2022-08-24T06:44:30.588Z,15.30
2022-08-24T06:45:30.574Z,17.50
2022-08-24T06:46:32.845Z,18.30
2022-08-24T06:47:30.541Z,22.00
2022-08-24T06:48:30.533Z,18.80
2022-08-24T06:49:30.507Z,15.90
2022-08-24T06:50:30.491Z,18.80
2022-08-24T06:51:30.515Z,16.70
2022-08-24T06:52:30.608Z,18.90
2022-08-24T06:53:30.546Z,19.10
2022-08-24T06:54:30.450Z,19.00
2022-08-24T06:55:30.445Z,18.10
2022-08-24T06:56:30.491Z,18.60
2022-08-24T06:57:30.600Z,23.50
2022-08-24T06:58:30.513Z,20.10
2022-08-24T07:00:30.359Z,17.80
2022-08-24T07:01:30.363Z,17.70
2022-08-24T07:02:30.337Z,19.30
2022-08-24T07:03:30.282Z,18.40
2022-08-24T07:04:30.434Z,16.40
2022-08-24T07:05:30.251Z,17.50
2022-08-24T07:06:30.336Z,18.30
2022-08-24T07:07:30.414Z,15.10
2022-08-24T07:08:30.331Z,19.00
2022-08-24T07:09:30.186Z,14.90
2022-08-24T07:10:30.750Z,16.50
2022-08-24T07:11:30.183Z,16.10
2022-08-24T07:12:30.383Z,14.20
2022-08-24T07:14:30.149Z,18.80
2022-08-24T07:15:30.095Z,14.30
2022-08-24T07:16:30.078Z,14.50
2022-08-24T07:17:30.089Z,15.50
2022-08-24T07:18:30.248Z,16.70
2022-08-24T07:20:30.014Z,19.90
2022-08-24T07:21:30.001Z,16.20
2022-08-24T07:22:30.010Z,19.20
2022-08-24T07:23:41.562Z,16.30
2022-08-24T07:24:30.051Z,15.00
2022-08-24T07:25:29.977Z,17.40
2022-08-24T07:26:29.917Z,17.80
2022-08-24T07:27:29.901Z,16.00
2022-08-24T07:28:32.053Z,15.20
2022-08-24T07:29:47.252Z,16.70
2022-08-24T07:30:29.956Z,17.70
2022-08-24T07:31:34.660Z,14.80
2022-08-24T07:32:29.827Z,15.80
2022-08-24T07:33:29.811Z,16.70
2022-08-24T07:34:29.791Z,16.50
2022-08-24T07:35:30.118Z,14.20
2022-08-24T07:36:29.760Z,17.70
2022-08-24T07:37:40.758Z,15.70
2022-08-24T07:38:29.731Z,14.00
2022-08-24T07:39:29.711Z,15.10
2022-08-24T07:40:29.789Z,16.70
2022-08-24T07:41:47.001Z,13.50
2022-08-24T07:42:32.101Z,17.00
2022-08-24T07:43:29.650Z,13.80
2022-08-24T07:44:29.638Z,14.10
2022-08-24T07:45:29.617Z,15.20
2022-08-24T07:46:29.672Z,18.10
2022-08-24T07:47:54.533Z,13.70
2022-08-24T07:48:29.573Z,12.60
2022-08-24T07:49:36.429Z,16.10
2022-08-24T07:50:29.644Z,14.40
2022-08-24T07:52:29.510Z,16.50
2022-08-24T07:53:37.890Z,13.60
2022-08-24T07:54:29.484Z,14.50
2022-08-24T07:55:29.464Z,16.50
2022-08-24T07:56:29.668Z,14.30
2022-08-24T07:57:29.460Z,11.10
2022-08-24T07:58:29.423Z,12.80
2022-08-24T07:59:29.429Z,12.30
2022-08-24T08:00:29.413Z,12.00
2022-08-24T08:01:29.445Z,13.90
2022-08-24T08:03:29.341Z,12.00
2022-08-24T08:04:29.327Z,13.20
2022-08-24T08:05:29.314Z,13.20
2022-08-24T08:06:29.299Z,15.40
2022-08-24T08:07:29.290Z,12.60
2022-08-24T08:08:29.264Z,13.90
2022-08-24T08:09:29.250Z,11.70
2022-08-24T08:10:29.233Z,12.80
2022-08-24T08:11:29.215Z,11.60
2022-08-24T08:12:29.201Z,13.40
2022-08-24T08:13:29.203Z,12.60
2022-08-24T08:14:29.178Z,14.30
2022-08-24T08:15:29.215Z,13.80
2022-08-24T08:16:29.215Z,13.60
2022-08-24T08:17:29.124Z,12.60
2022-08-24T08:18:29.110Z,12.20
2022-08-24T08:19:29.094Z,16.70
2022-08-24T08:20:29.079Z,12.30
2022-08-24T08:21:29.061Z,11.00
2022-08-24T08:22:29.148Z,10.80
2022-08-24T08:23:29.100Z,10.90
2022-08-24T08:24:29.077Z,9.20
2022-08-24T08:25:29.115Z,10.40
2022-08-24T08:26:29.060Z,9.60
2022-08-24T08:27:28.971Z,12.80
2022-08-24T08:28:35.682Z,11.30
2022-08-24T08:29:28.943Z,10.40
2022-08-24T08:30:28.932Z,9.70
2022-08-24T08:31:29.132Z,13.30
2022-08-24T08:32:29.121Z,11.60
2022-08-24T08:33:28.913Z,11.20
2022-08-24T08:34:28.865Z,11.40
2022-08-24T08:35:28.851Z,10.30
2022-08-24T08:36:28.861Z,10.60
2022-08-24T08:37:28.868Z,9.20
2022-08-24T08:39:28.992Z,7.50
2022-08-24T08:40:28.862Z,7.80
2022-08-24T08:41:28.987Z,7.70
2022-08-24T08:43:28.731Z,10.80
2022-08-24T08:44:29.232Z,8.60
2022-08-24T08:45:28.761Z,7.70
2022-08-24T08:46:28.781Z,7.70
2022-08-24T08:47:28.696Z,9.40
2022-08-24T08:48:28.651Z,8.50
2022-08-24T08:49:28.638Z,8.60
2022-08-24T08:50:28.624Z,8.30
2022-08-24T08:51:28.609Z,7.70
2022-08-24T08:52:28.594Z,7.70
2022-08-24T08:53:28.580Z,9.70
2022-08-24T08:54:28.563Z,7.60
2022-08-24T08:55:29.453Z,7.10
2022-08-24T08:56:28.535Z,10.00
2022-08-24T08:57:29.501Z,6.80
2022-08-24T08:58:28.503Z,8.10
2022-08-24T08:59:28.490Z,7.40
2022-08-24T09:00:28.476Z,6.40
2022-08-24T09:01:29.940Z,7.20
2022-08-24T09:02:28.444Z,7.80
2022-08-24T09:03:28.430Z,8.40
2022-08-24T09:04:28.448Z,5.20
2022-08-24T09:05:28.498Z,11.10
2022-08-24T09:06:28.385Z,6.80
2022-08-24T09:07:28.374Z,9.80
2022-08-24T09:08:28.355Z,7.30
2022-08-24T09:09:30.785Z,7.50
2022-08-24T09:10:28.331Z,6.40
2022-08-24T09:11:28.312Z,8.70
2022-08-24T09:12:28.303Z,8.40
2022-08-24T09:13:28.283Z,7.90
2022-08-24T09:14:28.265Z,9.90
2022-08-24T09:15:28.253Z,7.50
2022-08-24T09:16:28.282Z,5.40
2022-08-24T09:17:28.224Z,9.90
2022-08-24T09:18:28.208Z,8.40
2022-08-24T09:19:31.876Z,8.10
2022-08-24T09:20:28.183Z,8.50
2022-08-24T09:21:28.166Z,6.90
2022-08-24T09:22:28.153Z,5.70
2022-08-24T09:23:28.154Z,8.10
2022-08-24T09:24:28.122Z,6.60
2022-08-24T09:25:28.107Z,5.40
2022-08-24T09:26:28.091Z,6.70
2022-08-24T09:27:28.079Z,7.70
2022-08-24T09:28:28.062Z,4.60
2022-08-24T09:29:28.046Z,7.90
2022-08-24T09:30:28.103Z,5.80
2022-08-24T09:31:28.169Z,5.20
2022-08-24T09:32:28.024Z,8.10
2022-08-24T09:33:27.990Z,6.80
2022-08-24T09:34:27.979Z,5.90
2022-08-24T09:35:27.961Z,6.50
2022-08-24T09:36:27.954Z,5.40
2022-08-24T09:37:27.955Z,7.60
2022-08-24T09:38:27.916Z,8.10
2022-08-24T09:39:27.987Z,6.30
2022-08-24T09:40:27.925Z,6.70
2022-08-24T09:41:27.905Z,7.50
2022-08-24T09:42:27.978Z,8.00
2022-08-24T09:43:27.846Z,6.10
2022-08-24T09:44:27.832Z,7.60
2022-08-24T09:45:27.847Z,7.00
2022-08-24T09:46:27.835Z,5.10
2022-08-24T09:47:27.791Z,8.00
2022-08-24T09:48:27.775Z,6.00
2022-08-24T09:49:27.762Z,5.20
2022-08-24T09:50:27.745Z,5.70
2022-08-24T09:51:27.731Z,5.10
2022-08-24T09:52:27.717Z,4.80
2022-08-24T09:53:27.699Z,6.60
2022-08-24T09:54:27.690Z,7.90
2022-08-24T09:55:27.672Z,4.70
2022-08-24T09:56:27.661Z,6.70
2022-08-24T09:57:44.155Z,7.20
2022-08-24T09:58:27.675Z,5.10
2022-08-24T09:59:27.617Z,9.20
2022-08-24T10:00:27.602Z,5.00
2022-08-24T10:01:27.621Z,6.30
2022-08-24T10:02:27.600Z,8.30
2022-08-24T10:03:35.000Z,4.90
2022-08-24T10:04:27.692Z,4.60
2022-08-24T10:05:27.724Z,6.10
2022-08-24T10:06:27.523Z,5.20
2022-08-24T10:07:27.505Z,5.70
2022-08-24T10:08:27.493Z,4.20
2022-08-24T10:09:27.478Z,5.80
2022-08-24T10:10:27.467Z,5.10
2022-08-24T10:11:27.455Z,7.20
2022-08-24T10:12:27.445Z,8.80
2022-08-24T10:13:27.428Z,5.10
2022-08-24T10:14:27.418Z,6.60
2022-08-24T10:15:27.402Z,6.80
2022-08-24T10:16:27.447Z,6.60
2022-08-24T10:17:27.373Z,6.30
2022-08-24T10:18:27.366Z,4.10
2022-08-24T10:19:27.359Z,5.60
2022-08-24T10:20:27.349Z,5.30
2022-08-24T10:21:27.323Z,4.90
2022-08-24T10:22:27.311Z,4.50
2022-08-24T10:23:27.297Z,7.40
2022-08-24T10:24:29.802Z,7.00
2022-08-24T10:25:27.269Z,5.10
2022-08-24T10:26:27.309Z,4.20
2022-08-24T10:27:27.336Z,5.40
2022-08-24T10:28:27.235Z,9.00
2022-08-24T10:29:27.254Z,5.00
2022-08-24T10:30:28.126Z,6.80
2022-08-24T10:31:27.237Z,6.70
2022-08-24T10:32:27.189Z,6.00
2022-08-24T10:33:27.174Z,5.10
2022-08-24T10:34:27.199Z,5.40
2022-08-24T10:35:27.377Z,5.80
2022-08-24T10:36:27.135Z,4.60
2022-08-24T10:37:27.123Z,4.70
2022-08-24T10:38:27.108Z,4.20
2022-08-24T10:39:27.099Z,9.10
2022-08-24T10:40:27.138Z,3.60
2022-08-24T10:41:27.086Z,5.00
2022-08-24T10:42:27.060Z,5.60
2022-08-24T10:43:27.047Z,5.20
2022-08-24T10:44:27.034Z,5.40
2022-08-24T10:45:27.114Z,5.80
2022-08-24T10:46:27.011Z,7.90
2022-08-24T10:47:27.056Z,7.40
2022-08-24T10:48:27.074Z,8.20
2022-08-24T10:49:27.307Z,6.10
2022-08-24T10:50:30.976Z,4.50
2022-08-24T10:51:26.976Z,10.50
2022-08-24T10:52:27.028Z,7.40
2022-08-24T10:53:26.955Z,6.30
2022-08-24T10:54:26.957Z,5.60
2022-08-24T10:55:27.024Z,4.00
2022-08-24T10:56:26.887Z,5.40
2022-08-24T10:57:26.876Z,6.60
2022-08-24T10:58:26.862Z,5.80
2022-08-24T10:59:26.846Z,5.30
2022-08-24T11:00:26.839Z,8.00
2022-08-24T11:01:26.927Z,7.40
2022-08-24T11:02:26.832Z,3.70
2022-08-24T11:03:28.282Z,6.90
2022-08-24T11:04:26.791Z,3.90
2022-08-24T11:05:26.784Z,4.50
2022-08-24T11:06:26.766Z,5.60
2022-08-24T11:07:26.761Z,3.90
2022-08-24T11:08:26.741Z,5.70
2022-08-24T11:09:26.764Z,7.40
2022-08-24T11:10:27.884Z,6.60
2022-08-24T11:11:26.705Z,6.10
2022-08-24T11:12:26.792Z,5.20
2022-08-24T11:13:26.681Z,9.00
2022-08-24T11:14:26.669Z,4.60
2022-08-24T11:15:26.778Z,4.80
2022-08-24T11:16:26.795Z,5.30
2022-08-24T11:17:26.672Z,4.70
2022-08-24T11:18:26.621Z,4.90
2022-08-24T11:19:26.665Z,5.30
2022-08-24T11:20:26.711Z,4.50
2022-08-24T11:21:26.653Z,6.40
2022-08-24T11:22:26.577Z,5.20
2022-08-24T11:23:31.460Z,6.00
2022-08-24T11:24:26.548Z,4.00
2022-08-24T11:25:26.537Z,4.40
2022-08-24T11:26:26.526Z,3.60
2022-08-24T11:27:26.523Z,4.30
2022-08-24T11:28:26.608Z,8.20
2022-08-24T11:29:26.490Z,6.30
2022-08-24T11:30:26.486Z,5.70
2022-08-24T11:31:26.529Z,4.00
2022-08-24T11:32:26.456Z,4.60
2022-08-24T11:33:26.440Z,5.60
2022-08-24T11:34:26.430Z,5.40
2022-08-24T11:35:26.418Z,4.30
2022-08-24T11:36:26.429Z,5.10
2022-08-24T11:37:30.627Z,6.80
2022-08-24T11:38:26.385Z,7.40
2022-08-24T11:39:26.421Z,6.70
2022-08-24T11:40:26.486Z,8.60
2022-08-24T11:41:26.446Z,6.60
2022-08-24T11:42:27.465Z,5.90
2022-08-24T11:43:26.375Z,5.10
2022-08-24T11:44:26.352Z,5.00
2022-08-24T11:45:26.335Z,3.90
2022-08-24T11:46:26.361Z,4.30
2022-08-24T11:47:26.329Z,4.30
2022-08-24T11:48:27.444Z,6.80
2022-08-24T11:49:26.366Z,5.30
2022-08-24T11:50:26.393Z,5.00
2022-08-24T11:51:26.340Z,3.10
2022-08-24T11:52:26.327Z,4.10
2022-08-24T11:53:26.274Z,6.90
2022-08-24T11:54:26.259Z,4.90
2022-08-24T11:55:26.248Z,6.00
2022-08-24T11:56:26.230Z,6.50
2022-08-24T11:57:26.276Z,5.20
2022-08-24T11:58:26.217Z,6.00
2022-08-24T11:59:26.194Z,7.00
2022-08-24T12:00:26.152Z,3.80
2022-08-24T12:01:26.187Z,3.70
2022-08-24T12:02:26.364Z,7.00
2022-08-24T12:03:26.303Z,5.00
2022-08-24T12:04:26.088Z,5.30
2022-08-24T12:05:26.059Z,7.80
2022-08-24T12:06:27.621Z,3.20
2022-08-24T12:07:26.035Z,3.60
2022-08-24T12:08:26.019Z,4.50
2022-08-24T12:09:26.001Z,4.30
2022-08-24T12:10:28.550Z,5.00
2022-08-24T12:11:25.983Z,3.00
2022-08-24T12:12:25.969Z,5.50
2022-08-24T12:13:25.949Z,4.00
2022-08-24T12:14:25.941Z,4.50
2022-08-24T12:15:25.925Z,6.10
2022-08-24T12:16:26.005Z,4.10
2022-08-24T12:17:25.901Z,7.40
2022-08-24T12:18:25.897Z,5.00
2022-08-24T12:19:25.875Z,3.50
2022-08-24T12:20:25.868Z,3.80
2022-08-24T12:21:25.858Z,3.70
2022-08-24T12:22:25.848Z,4.70
2022-08-24T12:23:25.828Z,5.90
2022-08-24T12:24:25.824Z,4.40
2022-08-24T12:25:25.806Z,3.90
2022-08-24T12:26:25.792Z,4.60
2022-08-24T12:27:25.779Z,4.20
2022-08-24T12:28:25.779Z,3.90
2022-08-24T12:29:25.753Z,2.80
2022-08-24T12:30:25.759Z,3.50
2022-08-24T12:31:25.840Z,4.10
2022-08-24T12:32:25.729Z,4.70
2022-08-24T12:33:26.070Z,3.30
2022-08-24T12:34:25.698Z,4.90
2022-08-24T12:35:25.681Z,4.40
2022-08-24T12:36:25.669Z,5.00
2022-08-24T12:37:25.657Z,4.90
2022-08-24T12:38:25.716Z,8.20
2022-08-24T12:39:25.632Z,5.90
2022-08-24T12:40:25.709Z,7.90
2022-08-24T12:41:25.607Z,4.00
2022-08-24T12:42:25.600Z,3.80
2022-08-24T12:43:25.616Z,3.70
2022-08-24T12:44:25.599Z,3.80
2022-08-24T12:45:25.573Z,2.70
2022-08-24T12:46:25.633Z,3.00
2022-08-24T12:47:25.533Z,3.40
2022-08-24T12:48:25.522Z,3.30
2022-08-24T12:49:25.518Z,3.60
2022-08-24T12:50:25.500Z,4.70
2022-08-24T12:51:25.487Z,3.50
2022-08-24T12:52:25.576Z,4.80
2022-08-24T12:53:26.351Z,3.20
2022-08-24T12:54:25.523Z,5.70
2022-08-24T12:55:25.490Z,3.20
2022-08-24T12:56:25.429Z,2.70
2022-08-24T12:57:25.631Z,3.70
2022-08-24T12:58:34.983Z,3.00
2022-08-24T12:59:25.416Z,3.70
2022-08-24T13:00:25.419Z,3.60
2022-08-24T13:01:29.531Z,5.00
2022-08-24T13:02:25.471Z,4.90
2022-08-24T13:03:25.339Z,5.00
2022-08-24T13:04:25.386Z,3.20
2022-08-24T13:05:25.314Z,4.80
2022-08-24T13:06:25.303Z,4.50
2022-08-24T13:07:25.291Z,4.40
2022-08-24T13:08:25.282Z,4.20
2022-08-24T13:09:25.267Z,5.10
2022-08-24T13:10:25.256Z,4.60
2022-08-24T13:11:25.242Z,2.80
2022-08-24T13:12:27.898Z,4.00
2022-08-24T13:13:25.218Z,4.10
2022-08-24T13:14:25.207Z,3.30
2022-08-24T13:15:25.195Z,3.90
2022-08-24T13:16:25.248Z,3.10
2022-08-24T13:17:25.167Z,2.90
2022-08-24T13:18:25.161Z,4.10
2022-08-24T13:19:25.144Z,4.60
2022-08-24T13:20:25.135Z,6.50
2022-08-24T13:21:25.121Z,4.00
2022-08-24T13:22:25.110Z,5.20
2022-08-24T13:23:25.095Z,2.30
2022-08-24T13:24:25.086Z,6.60
2022-08-24T13:25:25.072Z,3.40
2022-08-24T13:26:25.062Z,3.20
2022-08-24T13:27:25.098Z,3.70
2022-08-24T13:28:25.040Z,3.50
2022-08-24T13:29:25.045Z,4.20
2022-08-24T13:30:25.012Z,10.10
2022-08-24T13:31:25.178Z,3.90
2022-08-24T13:32:29.380Z,5.60
2022-08-24T13:33:25.097Z,2.60
2022-08-24T13:34:25.037Z,3.90
2022-08-24T13:35:24.956Z,4.10
2022-08-24T13:36:24.943Z,4.00
2022-08-24T13:37:24.939Z,4.20
2022-08-24T13:38:24.916Z,3.10
2022-08-24T13:39:24.965Z,3.60
2022-08-24T13:40:25.266Z,6.70
2022-08-24T13:41:24.886Z,4.90
2022-08-24T13:42:24.974Z,2.40
2022-08-24T13:43:24.856Z,5.70
2022-08-24T13:44:24.853Z,3.90
2022-08-24T13:45:24.831Z,3.00
2022-08-24T13:46:24.911Z,7.50
2022-08-24T13:47:24.827Z,4.80
2022-08-24T13:48:24.842Z,3.20
2022-08-24T13:49:24.782Z,3.80
2022-08-24T13:50:24.771Z,3.60
2022-08-24T13:51:24.758Z,2.60
2022-08-24T13:52:24.756Z,4.60
2022-08-24T13:53:24.740Z,3.20
2022-08-24T13:54:24.727Z,3.90
2022-08-24T13:55:24.718Z,4.10
2022-08-24T13:56:29.688Z,3.70
2022-08-24T13:57:24.800Z,3.00
2022-08-24T13:58:24.675Z,4.60
2022-08-24T13:59:24.665Z,3.90
2022-08-24T14:00:24.654Z,3.20
2022-08-24T14:01:25.540Z,4.30
2022-08-24T14:02:24.627Z,2.50
2022-08-24T14:03:24.618Z,3.80
2022-08-24T14:04:24.679Z,3.30
2022-08-24T14:05:24.718Z,4.20
2022-08-24T14:06:24.578Z,3.90
2022-08-24T14:07:24.577Z,4.20
2022-08-24T14:08:24.561Z,2.80
2022-08-24T14:09:24.544Z,3.10
2022-08-24T14:10:24.533Z,4.50
2022-08-24T14:11:24.521Z,4.40
2022-08-24T14:12:24.506Z,5.60
2022-08-24T14:13:26.570Z,6.00
2022-08-24T14:14:24.485Z,8.10
2022-08-24T14:15:24.472Z,4.00
2022-08-24T14:16:24.542Z,2.50
2022-08-24T14:17:24.455Z,3.40
2022-08-24T14:18:24.452Z,3.30
2022-08-24T14:19:24.441Z,5.10
2022-08-24T14:20:24.524Z,4.20
2022-08-24T14:21:24.402Z,3.20
2022-08-24T14:22:24.394Z,4.00
2022-08-24T14:23:24.446Z,5.90
2022-08-24T14:24:24.423Z,4.10